Time;durP1;ratioP1;P1;durP2;ratioP2;P2;SDS_P1;SDS_P2;PMS_P1;PMS_P2;Temp;Humidity;BMP_temperature;BMP_pressure;BME280_temperature;BME280_humidity;BME280_pressure;Samples;Min_cycle;Max_cycle;Signal;HPM_P1;HPM_P2
2022/10/08 00:01:28;;;;;;;12.70;5.70;;;8.80;99.90;;;;;;5049189;28;20229;-50
2022/10/08 00:03:57;;;;;;;24.77;11.93;;;8.80;99.90;;;;;;5048963;28;20764;-52
2022/10/08 00:06:27;;;;;;;11.57;4.40;;;8.80;99.90;;;;;;5049861;28;20221;-52
2022/10/08 00:08:57;;;;;;;15.37;7.07;;;8.80;99.90;;;;;;5049842;28;20210;-51
2022/10/08 00:11:28;;;;;;;43.93;19.57;;;8.80;99.90;;;;;;5049192;28;20663;-51
2022/10/08 00:13:58;;;;;;;8.70;5.20;;;8.80;99.90;;;;;;5049245;28;20231;-52
2022/10/08 00:16:28;;;;;;;15.33;9.23;;;8.70;99.90;;;;;;5050100;28;20297;-52
2022/10/08 00:18:59;;;;;;;10.07;5.27;;;8.70;99.90;;;;;;5048275;28;20248;-51
2022/10/08 00:21:29;;;;;;;8.43;4.47;;;8.70;99.90;;;;;;5054303;28;20283;-53
2022/10/08 00:24:00;;;;;;;14.53;5.40;;;8.60;99.90;;;;;;5053865;28;20673;-52
2022/10/08 00:26:30;;;;;;;7.00;4.10;;;8.60;99.90;;;;;;5054121;28;20209;-52
2022/10/08 00:29:01;;;;;;;28.33;18.63;;;8.60;99.90;;;;;;5054385;28;20297;-50
2022/10/08 00:31:32;;;;;;;8.90;7.43;;;8.50;99.90;;;;;;5054122;28;20199;-51
2022/10/08 00:34:02;;;;;;;11.40;9.07;;;8.50;99.90;;;;;;5053638;28;20228;-52
2022/10/08 00:36:32;;;;;;;16.53;13.00;;;8.50;99.90;;;;;;5053677;28;20297;-51
2022/10/08 00:39:03;;;;;;;8.43;4.33;;;8.50;99.90;;;;;;5044343;28;20293;-52
2022/10/08 00:41:34;;;;;;;24.23;12.17;;;8.40;99.90;;;;;;5047794;28;20260;-51
2022/10/08 00:44:42;;;;;;;14.17;8.10;;;8.30;99.90;;;;;;5052171;28;20313;-51
2022/10/08 00:47:14;;;;;;;10.97;5.37;;;8.30;99.90;;;;;;5052850;28;20205;-49
2022/10/08 00:49:43;;;;;;;10.73;4.30;;;8.30;99.90;;;;;;5052935;28;20296;-51
2022/10/08 00:52:11;;;;;;;8.37;5.13;;;8.30;99.90;;;;;;5053033;28;20293;-52
2022/10/08 00:54:39;;;;;;;7.53;5.57;;;8.30;99.90;;;;;;5052260;28;20340;-52
2022/10/08 00:57:08;;;;;;;8.07;4.03;;;8.20;99.90;;;;;;5053229;28;20637;-51
2022/10/08 00:59:38;;;;;;;14.73;8.60;;;8.20;99.90;;;;;;5053735;28;20205;-50
2022/10/08 01:02:07;;;;;;;28.40;16.03;;;8.10;99.90;;;;;;5053043;28;20226;-51
2022/10/08 01:04:36;;;;;;;8.30;4.40;;;8.10;99.90;;;;;;5052744;28;20320;-51
2022/10/08 01:07:10;;;;;;;14.13;4.17;;;8.10;99.90;;;;;;5052537;28;20293;-52
2022/10/08 01:09:44;;;;;;;41.30;26.00;;;8.00;99.90;;;;;;5052808;28;20288;-51
2022/10/08 01:12:21;;;;;;;6.97;4.57;;;8.00;99.90;;;;;;5052730;28;20211;-51
2022/10/08 01:14:58;;;;;;;19.03;12.37;;;8.00;99.90;;;;;;5052856;28;20316;-50
2022/10/08 01:17:33;;;;;;;29.00;14.83;;;7.90;99.90;;;;;;5052505;28;20209;-51
2022/10/08 01:20:26;;;;;;;10.83;5.00;;;7.90;99.90;;;;;;5052678;28;20292;-51
2022/10/08 01:23:08;;;;;;;8.63;5.07;;;7.80;99.90;;;;;;5047062;28;20328;-50
2022/10/08 01:25:46;;;;;;;8.33;4.23;;;7.80;99.90;;;;;;5050018;28;20300;-52
2022/10/08 01:28:23;;;;;;;10.97;5.07;;;7.80;99.90;;;;;;5051910;28;20280;-52
2022/10/08 01:30:57;;;;;;;14.23;8.57;;;7.70;99.90;;;;;;5045999;28;20205;-51
2022/10/08 01:33:29;;;;;;;24.03;20.07;;;7.70;99.90;;;;;;5038042;28;20777;-51
2022/10/08 01:36:01;;;;;;;6.13;4.27;;;7.70;99.90;;;;;;5051752;28;20236;-50
2022/10/08 01:38:32;;;;;;;11.97;4.90;;;7.60;99.90;;;;;;5051976;28;20267;-52
2022/10/08 01:41:06;;;;;;;5.97;4.00;;;7.60;99.90;;;;;;5051517;28;20278;-51
2022/10/08 01:43:39;;;;;;;9.57;5.63;;;7.60;99.90;;;;;;5050802;28;20308;-52
2022/10/08 01:46:14;;;;;;;8.10;4.20;;;7.50;99.90;;;;;;5051437;28;20217;-51
2022/10/08 01:48:44;;;;;;;12.13;4.80;;;7.50;99.90;;;;;;5037365;28;20212;-51
2022/10/08 01:51:19;;;;;;;34.20;23.60;;;7.40;99.90;;;;;;5051652;28;20659;-51
2022/10/08 01:53:51;;;;;;;8.50;4.00;;;7.40;99.90;;;;;;5051564;28;20702;-51
2022/10/08 01:56:24;;;;;;;25.30;13.07;;;7.40;99.90;;;;;;5051870;28;20241;-51
2022/10/08 01:58:57;;;;;;;12.43;10.33;;;7.30;99.90;;;;;;5052135;28;20256;-51
2022/10/08 02:01:32;;;;;;;9.17;4.20;;;7.30;99.90;;;;;;5052063;28;20401;-51
2022/10/08 02:06:52;;;;;;;5.83;4.13;;;7.30;99.90;;;;;;5039610;28;20299;-51
2022/10/08 02:09:21;;;;;;;8.47;5.10;;;7.30;99.90;;;;;;5051801;28;20848;-51
2022/10/08 02:11:49;;;;;;;24.00;11.93;;;7.20;99.90;;;;;;5051298;28;20952;-49
2022/10/08 02:14:20;;;;;;;16.07;8.30;;;7.30;99.90;;;;;;5051919;28;20311;-51
2022/10/08 02:16:55;;;;;;;16.40;7.17;;;7.30;99.90;;;;;;5052050;28;20245;-52
2022/10/08 02:19:29;;;;;;;15.37;7.17;;;7.20;99.90;;;;;;5050405;28;20209;-52
2022/10/08 02:21:59;;;;;;;16.93;7.27;;;7.20;99.90;;;;;;5050681;28;20299;-51
2022/10/08 02:24:33;;;;;;;15.13;5.87;;;7.20;99.90;;;;;;5051414;28;20320;-50
2022/10/08 02:27:03;;;;;;;22.33;6.80;;;7.20;99.90;;;;;;5051590;28;20295;-51
2022/10/08 02:29:40;;;;;;;29.30;10.03;;;7.20;99.90;;;;;;5051562;28;20685;-50
2022/10/08 02:32:12;;;;;;;20.47;7.90;;;7.10;99.90;;;;;;5049009;28;20312;-49
2022/10/08 02:34:46;;;;;;;16.50;7.20;;;7.10;99.90;;;;;;5050935;28;20236;-51
2022/10/08 02:37:18;;;;;;;9.50;4.73;;;7.10;99.90;;;;;;5050806;28;20300;-51
2022/10/08 02:39:53;;;;;;;9.00;4.80;;;7.10;99.90;;;;;;5051015;28;20296;-50
2022/10/08 02:42:24;;;;;;;16.90;9.07;;;7.00;99.90;;;;;;5050514;28;20288;-52
2022/10/08 02:44:59;;;;;;;12.00;5.07;;;6.90;99.90;;;;;;5038787;28;20661;-52
2022/10/08 02:47:32;;;;;;;9.03;4.83;;;6.90;99.90;;;;;;5048412;28;20584;-51
2022/10/08 02:50:04;;;;;;;10.43;6.40;;;6.90;99.90;;;;;;5050727;28;20293;-50
2022/10/08 02:52:38;;;;;;;7.60;4.73;;;6.90;99.90;;;;;;5051039;28;20292;-51
2022/10/08 02:55:18;;;;;;;14.20;8.77;;;6.90;99.90;;;;;;5050657;28;20284;-51
2022/10/08 02:57:50;;;;;;;7.10;3.80;;;6.80;99.90;;;;;;5049456;28;20216;-52
2022/10/08 03:00:20;;;;;;;7.33;4.47;;;6.80;99.90;;;;;;5050476;28;20239;-50
2022/10/08 03:02:54;;;;;;;7.47;4.10;;;6.80;99.90;;;;;;5050274;28;20316;-51
2022/10/08 03:05:23;;;;;;;16.50;8.20;;;6.80;99.90;;;;;;5050294;28;20292;-51
2022/10/08 03:07:53;;;;;;;11.30;4.47;;;6.80;99.90;;;;;;5050224;28;20209;-51
2022/10/08 03:10:24;;;;;;;14.83;7.20;;;6.80;99.90;;;;;;5050610;28;20321;-50
2022/10/08 03:12:53;;;;;;;16.30;8.57;;;6.70;99.90;;;;;;5049059;28;20249;-52
2022/10/08 03:15:24;;;;;;;6.93;3.50;;;6.70;99.90;;;;;;5036958;28;20214;-50
2022/10/08 03:17:53;;;;;;;5.37;3.87;;;6.60;99.90;;;;;;5050302;28;20632;-51
2022/10/08 03:20:22;;;;;;;12.13;4.03;;;6.60;99.90;;;;;;5050270;28;20304;-51
2022/10/08 03:22:50;;;;;;;9.30;4.80;;;6.60;99.90;;;;;;5049702;28;20714;-49
2022/10/08 03:25:18;;;;;;;23.70;13.80;;;6.60;99.90;;;;;;5049902;28;20211;-50
2022/10/08 03:27:46;;;;;;;11.80;5.07;;;6.60;99.90;;;;;;5050588;28;20304;-51
2022/10/08 03:30:14;;;;;;;12.50;3.93;;;6.50;99.90;;;;;;5043623;28;20298;-51
2022/10/08 03:32:44;;;;;;;13.20;4.70;;;6.50;99.90;;;;;;5049710;28;20288;-52
2022/10/08 03:35:12;;;;;;;7.27;4.17;;;6.50;99.90;;;;;;5049434;28;20286;-49
2022/10/08 03:37:40;;;;;;;8.70;5.40;;;6.50;99.90;;;;;;5050122;28;20237;-50
2022/10/08 03:40:10;;;;;;;10.77;5.33;;;6.50;99.90;;;;;;5049728;28;20655;-51
2022/10/08 03:42:38;;;;;;;15.30;7.87;;;6.40;99.90;;;;;;5037300;28;20296;-51
2022/10/08 03:45:06;;;;;;;11.53;4.10;;;6.40;99.90;;;;;;5049759;28;20322;-51
2022/10/08 03:47:35;;;;;;;13.97;10.37;;;6.40;99.90;;;;;;5049878;28;20296;-51
2022/10/08 03:50:05;;;;;;;7.30;4.17;;;6.40;99.90;;;;;;5049635;28;20292;-50
2022/10/08 03:52:33;;;;;;;8.57;4.63;;;6.40;99.90;;;;;;5047846;28;20208;-50
2022/10/08 03:55:01;;;;;;;16.23;6.97;;;6.40;99.90;;;;;;5048568;28;20286;-51
2022/10/08 03:57:29;;;;;;;8.47;4.03;;;6.40;99.90;;;;;;5049708;28;20288;-51
2022/10/08 03:59:57;;;;;;;8.57;4.80;;;6.50;99.90;;;;;;5050024;28;20201;-50
2022/10/08 04:02:25;;;;;;;7.43;4.23;;;6.50;99.90;;;;;;5048878;28;20300;-52
2022/10/08 04:04:53;;;;;;;6.97;4.50;;;6.50;99.90;;;;;;5050138;28;20589;-51
2022/10/08 04:07:23;;;;;;;6.80;3.80;;;6.60;99.90;;;;;;5044784;28;20293;-51
2022/10/08 04:09:51;;;;;;;7.20;4.07;;;6.60;99.90;;;;;;5048894;28;20303;-51
2022/10/08 04:12:19;;;;;;;9.43;3.90;;;6.70;99.90;;;;;;5049521;28;20677;-52
2022/10/08 04:14:47;;;;;;;10.20;6.80;;;6.60;99.90;;;;;;5050011;28;20228;-51
2022/10/08 04:17:15;;;;;;;9.90;4.27;;;6.60;99.90;;;;;;5049508;28;20224;-51
2022/10/08 04:19:43;;;;;;;11.80;5.83;;;6.50;99.90;;;;;;5048606;28;20650;-50
2022/10/08 04:22:11;;;;;;;9.17;5.47;;;6.50;99.90;;;;;;5049361;28;20218;-51
2022/10/08 04:24:40;;;;;;;6.97;5.47;;;6.50;99.90;;;;;;5049245;28;20234;-51
2022/10/08 04:27:08;;;;;;;10.33;4.20;;;6.40;99.90;;;;;;5049846;28;20330;-51
2022/10/08 04:29:36;;;;;;;8.70;4.70;;;6.40;99.90;;;;;;5050058;28;20331;-51
2022/10/08 04:32:04;;;;;;;9.53;4.03;;;6.30;99.90;;;;;;5033394;28;20324;-51
2022/10/08 04:34:32;;;;;;;23.37;12.67;;;6.30;99.90;;;;;;5042529;28;20336;-51
2022/10/08 04:37:00;;;;;;;10.00;4.13;;;6.20;99.90;;;;;;5049223;28;20285;-51
2022/10/08 04:39:28;;;;;;;12.37;7.03;;;6.20;99.90;;;;;;5053396;28;20516;-51
2022/10/08 04:41:58;;;;;;;11.47;3.77;;;6.20;99.90;;;;;;5041112;28;20231;-51
2022/10/08 04:44:26;;;;;;;11.80;4.70;;;6.10;99.90;;;;;;5050435;28;20228;-50
2022/10/08 04:46:54;;;;;;;5.00;4.60;;;6.10;99.90;;;;;;5049915;28;20212;-51
2022/10/08 04:49:22;;;;;;;8.73;4.57;;;6.10;99.90;;;;;;5049709;28;20226;-50
2022/10/08 04:51:50;;;;;;;6.77;4.13;;;6.00;99.90;;;;;;5048527;28;20749;-51
2022/10/08 04:54:18;;;;;;;8.23;3.63;;;6.00;99.90;;;;;;5049383;28;20228;-50
2022/10/08 04:56:46;;;;;;;7.63;3.87;;;6.00;99.90;;;;;;5048545;28;20288;-51
2022/10/08 04:59:15;;;;;;;8.27;3.87;;;6.00;99.90;;;;;;5047781;28;20259;-52
2022/10/08 05:01:43;;;;;;;19.67;13.50;;;5.90;99.90;;;;;;5048677;28;20691;-51
2022/10/08 05:04:11;;;;;;;9.83;3.93;;;5.90;99.90;;;;;;5047334;28;20233;-52
2022/10/08 05:06:39;;;;;;;7.10;3.80;;;5.90;99.90;;;;;;5037004;28;20647;-52
2022/10/08 05:09:08;;;;;;;4.53;3.87;;;5.90;99.90;;;;;;5032117;28;20306;-52
2022/10/08 05:11:36;;;;;;;11.07;4.20;;;5.90;99.90;;;;;;5036657;28;20199;-51
2022/10/08 05:14:04;;;;;;;15.77;9.43;;;5.80;99.90;;;;;;5034176;28;20667;-51
2022/10/08 05:16:34;;;;;;;7.00;4.47;;;5.90;99.90;;;;;;5034722;28;20219;-50
2022/10/08 05:19:02;;;;;;;5.47;3.60;;;5.80;99.90;;;;;;5033516;28;20685;-51
2022/10/08 05:21:31;;;;;;;5.87;4.00;;;5.80;99.90;;;;;;5037421;28;20238;-51
2022/10/08 05:24:01;;;;;;;8.63;4.20;;;5.80;99.90;;;;;;5041481;28;20346;-49
2022/10/08 05:26:33;;;;;;;9.23;4.87;;;5.80;99.90;;;;;;5051595;28;20296;-49
2022/10/08 05:29:21;;;;;;;4.40;3.97;;;5.80;99.90;;;;;;5052615;28;20208;-51
2022/10/08 05:31:50;;;;;;;5.90;4.90;;;5.80;99.90;;;;;;5051528;28;20297;-52
2022/10/08 05:34:18;;;;;;;11.53;5.80;;;5.90;99.90;;;;;;5052516;28;20238;-52
2022/10/08 05:36:46;;;;;;;8.50;4.30;;;5.90;99.90;;;;;;5052766;28;20297;-51
2022/10/08 05:39:14;;;;;;;12.90;4.60;;;6.00;99.90;;;;;;5052540;28;20214;-52
2022/10/08 05:41:42;;;;;;;9.27;6.60;;;6.10;99.90;;;;;;5053282;28;20315;-51
2022/10/08 05:44:11;;;;;;;16.33;7.03;;;6.20;99.90;;;;;;5051783;28;20332;-52
2022/10/08 05:46:40;;;;;;;10.53;5.97;;;6.30;99.90;;;;;;5038004;28;20237;-52
2022/10/08 05:49:17;;;;;;;10.33;6.17;;;6.40;99.90;;;;;;5049344;28;20209;-51
2022/10/08 05:51:45;;;;;;;13.50;6.60;;;6.60;99.90;;;;;;5046653;28;20211;-52
2022/10/08 05:54:13;;;;;;;12.03;8.53;;;6.60;99.90;;;;;;5043318;28;20228;-52
2022/10/08 05:56:41;;;;;;;16.47;9.00;;;6.80;99.90;;;;;;5044224;28;20208;-51
2022/10/08 05:59:16;;;;;;;11.27;7.40;;;6.90;99.90;;;;;;5052490;28;20332;-52
2022/10/08 06:01:44;;;;;;;16.20;8.10;;;6.90;99.90;;;;;;5052071;28;20296;-51
2022/10/08 06:04:13;;;;;;;10.17;7.93;;;7.00;99.90;;;;;;5052057;28;20232;-50
2022/10/08 06:06:43;;;;;;;14.13;9.77;;;7.10;99.90;;;;;;5052394;28;20312;-50
2022/10/08 06:09:14;;;;;;;28.80;18.13;;;7.20;99.90;;;;;;5047820;28;20209;-51
2022/10/08 06:11:42;;;;;;;28.03;13.57;;;7.20;99.90;;;;;;5051572;28;20200;-52
2022/10/08 06:14:12;;;;;;;15.80;10.70;;;7.30;99.90;;;;;;5050032;28;20239;-52
2022/10/08 06:16:40;;;;;;;15.93;11.40;;;7.40;99.90;;;;;;5051942;28;20759;-51
2022/10/08 06:19:09;;;;;;;37.20;27.30;;;7.50;99.90;;;;;;5051516;28;20213;-52
2022/10/08 06:21:38;;;;;;;89.37;72.17;;;7.50;99.90;;;;;;5045354;28;20295;-51
2022/10/08 06:24:08;;;;;;;41.60;23.37;;;7.60;99.90;;;;;;5051876;28;20304;-52
2022/10/08 06:26:38;;;;;;;17.73;11.00;;;7.70;99.90;;;;;;5051149;28;20217;-52
2022/10/08 06:29:08;;;;;;;19.33;10.60;;;7.80;99.90;;;;;;5048040;28;20631;-51
2022/10/08 06:31:36;;;;;;;28.10;16.23;;;7.80;99.90;;;;;;5049741;28;20206;-51
2022/10/08 06:34:04;;;;;;;18.03;11.30;;;7.90;99.90;;;;;;5048403;28;20253;-51
2022/10/08 06:36:35;;;;;;;20.47;11.67;;;8.00;99.90;;;;;;5046497;28;20281;-51
2022/10/08 06:39:06;;;;;;;20.67;13.20;;;8.20;99.90;;;;;;5051176;28;20211;-51
2022/10/08 06:41:34;;;;;;;36.70;19.90;;;8.30;99.90;;;;;;5051249;28;20201;-51
2022/10/08 06:44:04;;;;;;;44.37;30.97;;;8.40;99.90;;;;;;5051327;28;20312;-50
2022/10/08 06:46:32;;;;;;;33.37;22.50;;;8.40;99.90;;;;;;5042221;28;20324;-50
2022/10/08 06:49:01;;;;;;;39.57;20.33;;;8.50;99.90;;;;;;5050847;28;20214;-52
2022/10/08 06:51:30;;;;;;;56.03;32.10;;;8.70;99.90;;;;;;5051328;28;20229;-51
2022/10/08 06:53:59;;;;;;;20.90;14.10;;;8.80;99.90;;;;;;5048642;28;20228;-52
2022/10/08 06:56:37;;;;;;;13.33;8.73;;;8.90;99.90;;;;;;5043421;28;20207;-51
2022/10/08 06:59:06;;;;;;;74.40;38.53;;;9.00;99.90;;;;;;5050417;28;20216;-51
2022/10/08 07:01:34;;;;;;;40.60;19.47;;;9.10;99.90;;;;;;5051562;28;20296;-52
2022/10/08 07:04:05;;;;;;;24.77;14.47;;;9.20;99.90;;;;;;5049998;28;20236;-51
2022/10/08 07:06:33;;;;;;;42.90;27.37;;;9.30;99.90;;;;;;5038114;28;20213;-52
2022/10/08 07:09:02;;;;;;;28.47;20.53;;;9.40;99.90;;;;;;5037659;28;20661;-52
2022/10/08 07:11:32;;;;;;;16.97;8.30;;;9.40;99.90;;;;;;5032844;28;20323;-51
2022/10/08 07:14:01;;;;;;;41.40;22.47;;;9.40;99.90;;;;;;5044992;28;20855;-52
2022/10/08 07:16:30;;;;;;;113.57;78.07;;;9.40;99.90;;;;;;5047096;28;20800;-52
2022/10/08 07:18:58;;;;;;;38.47;16.67;;;9.50;99.90;;;;;;5046936;28;20311;-52
2022/10/08 07:21:28;;;;;;;25.53;13.23;;;9.50;99.90;;;;;;5049279;28;20963;-52
2022/10/08 07:23:59;;;;;;;60.40;38.13;;;9.50;99.90;;;;;;5048398;28;20320;-51
2022/10/08 07:26:29;;;;;;;90.23;62.23;;;9.50;99.90;;;;;;5039946;28;20218;-51
2022/10/08 07:28:59;;;;;;;49.47;27.47;;;9.50;99.90;;;;;;5044411;28;20209;-52
2022/10/08 07:31:31;;;;;;;91.87;44.57;;;9.50;99.90;;;;;;5049521;28;20212;-51
2022/10/08 07:34:01;;;;;;;78.60;40.17;;;9.40;99.90;;;;;;5048878;28;20260;-51
2022/10/08 07:36:29;;;;;;;15.03;7.50;;;9.40;99.90;;;;;;5049058;28;20312;-52
2022/10/08 07:38:59;;;;;;;56.40;34.83;;;9.40;99.90;;;;;;5048676;28;20296;-52
2022/10/08 07:41:28;;;;;;;100.97;54.10;;;9.40;99.90;;;;;;5049613;28;20202;-50
2022/10/08 07:43:59;;;;;;;65.87;39.50;;;9.50;99.90;;;;;;5048503;28;20221;-50
2022/10/08 07:46:29;;;;;;;23.50;16.43;;;9.60;99.90;;;;;;5049659;28;20313;-52
2022/10/08 07:49:00;;;;;;;50.93;31.00;;;9.50;99.90;;;;;;5048937;28;20244;-52
2022/10/08 07:51:29;;;;;;;20.40;11.57;;;9.60;99.90;;;;;;5049484;28;20755;-52
2022/10/08 07:53:59;;;;;;;37.40;18.07;;;9.60;99.90;;;;;;5048962;28;20319;-52
2022/10/08 07:56:30;;;;;;;23.40;11.10;;;9.60;99.90;;;;;;5048519;28;20289;-52
2022/10/08 07:58:59;;;;;;;75.43;37.70;;;9.60;99.90;;;;;;5041632;28;20215;-51
2022/10/08 08:01:30;;;;;;;27.27;13.87;;;9.70;99.90;;;;;;5049557;28;20201;-51
2022/10/08 08:04:01;;;;;;;33.70;17.00;;;9.60;99.90;;;;;;5046432;28;20230;-52
2022/10/08 08:06:29;;;;;;;72.83;39.37;;;9.70;99.90;;;;;;5048183;28;20220;-51
2022/10/08 08:09:00;;;;;;;22.60;14.40;;;9.70;99.90;;;;;;5047350;28;20209;-52
2022/10/08 08:11:28;;;;;;;21.00;13.67;;;9.70;99.90;;;;;;5047526;28;20296;-51
2022/10/08 08:13:57;;;;;;;88.10;48.67;;;9.80;99.90;;;;;;5046967;28;20252;-52
2022/10/08 08:16:27;;;;;;;25.40;15.73;;;9.80;99.90;;;;;;5048606;28;20285;-52
2022/10/08 08:18:58;;;;;;;23.67;12.97;;;9.90;99.90;;;;;;5048306;28;20658;-51
2022/10/08 08:21:27;;;;;;;64.37;36.60;;;9.90;99.90;;;;;;5048106;28;20216;-51
2022/10/08 08:23:57;;;;;;;62.20;40.87;;;10.00;99.90;;;;;;5047306;28;20228;-52
2022/10/08 08:26:27;;;;;;;36.87;19.70;;;10.10;99.90;;;;;;5048331;28;20315;-51
2022/10/08 08:28:57;;;;;;;34.57;19.50;;;10.10;99.90;;;;;;5047716;28;20216;-50
2022/10/08 08:31:26;;;;;;;86.73;45.17;;;10.10;99.90;;;;;;5048132;28;20300;-50
2022/10/08 08:33:58;;;;;;;150.07;77.40;;;10.10;99.90;;;;;;5048420;28;20336;-52
2022/10/08 08:36:28;;;;;;;81.23;49.73;;;10.10;99.90;;;;;;5049537;28;20288;-51
2022/10/08 08:38:57;;;;;;;51.43;29.53;;;10.10;99.90;;;;;;5049214;28;20231;-51
2022/10/08 08:41:42;;;;;;;153.23;72.93;;;10.20;99.90;;;;;;5050784;28;20322;-51
2022/10/08 08:44:13;;;;;;;45.93;32.40;;;10.30;99.90;;;;;;5053007;28;20308;-50
2022/10/08 08:46:46;;;;;;;122.27;73.13;;;10.40;99.90;;;;;;5053395;28;20746;-52
2022/10/08 08:49:24;;;;;;;41.70;21.30;;;10.40;99.90;;;;;;5053011;28;20296;-51
2022/10/08 08:51:53;;;;;;;76.40;56.20;;;10.40;99.90;;;;;;5053061;28;20295;-50
2022/10/08 08:54:22;;;;;;;151.17;103.70;;;10.50;99.90;;;;;;5053341;28;20316;-51
2022/10/08 08:56:51;;;;;;;133.97;65.37;;;10.50;99.90;;;;;;5052685;28;20285;-52
2022/10/08 08:59:27;;;;;;;227.77;147.83;;;10.60;99.90;;;;;;5052899;28;20213;-52
2022/10/08 09:01:59;;;;;;;120.37;80.57;;;10.70;99.90;;;;;;5052451;28;20292;-51
2022/10/08 09:04:38;;;;;;;85.53;36.50;;;10.90;99.90;;;;;;5052818;28;20317;-52
2022/10/08 09:07:16;;;;;;;139.37;64.80;;;10.80;99.90;;;;;;5051624;28;20320;-52
2022/10/08 09:09:47;;;;;;;63.63;34.20;;;10.80;99.90;;;;;;5051613;28;20296;-52
2022/10/08 09:12:19;;;;;;;196.93;116.30;;;10.70;99.90;;;;;;5052240;28;20277;-52
2022/10/08 09:14:51;;;;;;;221.93;117.23;;;10.80;99.90;;;;;;5052913;28;20639;-50
2022/10/08 09:17:23;;;;;;;239.10;138.47;;;10.80;99.90;;;;;;5048257;28;20285;-51
2022/10/08 09:19:53;;;;;;;255.60;131.53;;;10.90;99.90;;;;;;5050388;28;20738;-51
2022/10/08 09:22:25;;;;;;;222.37;132.70;;;10.80;99.90;;;;;;5049639;28;20201;-51
2022/10/08 09:24:58;;;;;;;55.73;29.37;;;10.80;99.90;;;;;;5044733;28;20325;-51
2022/10/08 09:27:43;;;;;;;157.80;80.37;;;10.70;99.90;;;;;;5051407;28;20309;-50
2022/10/08 09:30:36;;;;;;;185.37;139.97;;;10.80;99.90;;;;;;5045397;28;20296;-50
2022/10/08 09:33:21;;;;;;;69.97;37.93;;;10.80;99.90;;;;;;5038622;28;20229;-52
2022/10/08 09:35:52;;;;;;;36.40;22.17;;;10.70;99.90;;;;;;5051341;28;20197;-52
2022/10/08 09:38:22;;;;;;;76.80;40.57;;;10.80;99.90;;;;;;5050447;28;20914;-53
2022/10/08 09:41:01;;;;;;;84.43;60.30;;;10.80;99.90;;;;;;5036236;28;20241;-52
2022/10/08 09:43:30;;;;;;;162.10;106.43;;;10.90;99.90;;;;;;5050402;28;20679;-51
2022/10/08 09:45:58;;;;;;;140.33;75.50;;;10.80;99.90;;;;;;5050616;28;20237;-52
2022/10/08 09:48:28;;;;;;;194.17;82.03;;;10.80;99.90;;;;;;5050255;28;20714;-52
2022/10/08 09:51:01;;;;;;;167.83;116.47;;;10.90;99.90;;;;;;5051831;28;20301;-51
2022/10/08 09:53:34;;;;;;;168.77;70.03;;;10.90;99.90;;;;;;5049814;28;20263;-51
2022/10/08 09:56:04;;;;;;;205.77;102.93;;;11.00;99.90;;;;;;5051531;28;20215;-51
2022/10/08 09:58:35;;;;;;;101.87;50.60;;;11.00;99.90;;;;;;5052830;28;20285;-52
2022/10/08 10:01:13;;;;;;;148.73;65.73;;;11.10;99.90;;;;;;5051730;28;20638;-52
2022/10/08 10:03:48;;;;;;;159.33;90.07;;;11.40;99.90;;;;;;5051255;28;20312;-52
2022/10/08 10:06:26;;;;;;;73.37;37.17;;;11.50;99.90;;;;;;5052783;28;20251;-50
2022/10/08 10:08:59;;;;;;;115.77;54.77;;;11.60;99.90;;;;;;5054267;28;20248;-52
2022/10/08 10:11:34;;;;;;;168.07;109.40;;;11.80;99.90;;;;;;5055224;28;20213;-51
2022/10/08 10:14:14;;;;;;;220.67;108.57;;;11.90;99.90;;;;;;5052509;28;20308;-48
2022/10/08 10:16:45;;;;;;;176.60;97.23;;;12.10;99.90;;;;;;5051729;28;20292;-51
2022/10/08 10:19:18;;;;;;;78.40;32.23;;;12.00;99.90;;;;;;5050723;28;20882;-51
2022/10/08 10:21:54;;;;;;;146.93;65.13;;;12.10;99.90;;;;;;5050941;28;20817;-51
2022/10/08 10:24:31;;;;;;;24.80;15.03;;;12.10;99.90;;;;;;5046506;28;20221;-52
2022/10/08 10:27:08;;;;;;;62.00;40.10;;;12.10;99.90;;;;;;5050914;28;20316;-52
2022/10/08 10:29:48;;;;;;;73.47;26.57;;;12.20;99.90;;;;;;5051546;28;20304;-52
2022/10/08 10:32:20;;;;;;;114.03;61.47;;;12.40;99.90;;;;;;5051331;28;20296;-51
2022/10/08 10:34:59;;;;;;;265.83;151.00;;;12.60;99.90;;;;;;5051829;28;20279;-51
2022/10/08 10:37:35;;;;;;;56.70;22.57;;;12.70;99.90;;;;;;5051532;28;20733;-51
2022/10/08 10:40:29;;;;;;;111.13;37.53;;;12.80;99.90;;;;;;5050684;28;20296;-51
2022/10/08 10:43:12;;;;;;;201.03;94.40;;;12.90;99.90;;;;;;5034411;28;20232;-52
2022/10/08 10:45:44;;;;;;;145.63;91.87;;;12.80;99.90;;;;;;5050846;28;20720;-51
2022/10/08 10:48:14;;;;;;;412.70;221.10;;;13.00;99.90;;;;;;5050801;28;20252;-52
2022/10/08 10:50:52;;;;;;;131.20;65.37;;;13.20;99.90;;;;;;5051709;28;20237;-51
2022/10/08 10:53:33;;;;;;;228.67;108.17;;;13.30;99.90;;;;;;5050484;28;20765;-51
2022/10/08 10:56:09;;;;;;;281.03;149.27;;;13.30;99.90;;;;;;5050583;28;20292;-52
2022/10/08 10:59:00;;;;;;;263.73;159.73;;;13.30;99.90;;;;;;5050843;28;20293;-52
2022/10/08 11:01:37;;;;;;;207.63;96.70;;;13.20;99.90;;;;;;5043392;28;20284;-52
2022/10/08 11:04:14;;;;;;;65.90;24.83;;;13.10;99.90;;;;;;5050189;28;20280;-52
2022/10/08 11:07:05;;;;;;;69.97;27.00;;;13.00;99.90;;;;;;5038400;28;20206;-52
2022/10/08 11:09:42;;;;;;;67.20;43.00;;;12.90;99.90;;;;;;5025986;28;20205;-53
2022/10/08 11:12:24;;;;;;;184.50;82.80;;;12.90;99.90;;;;;;5042122;28;20301;-52
2022/10/08 11:15:01;;;;;;;266.27;133.93;;;13.10;99.90;;;;;;5048914;28;20868;-52
2022/10/08 11:17:49;;;;;;;165.33;93.83;;;13.30;99.90;;;;;;5048740;28;20328;-52
2022/10/08 11:20:38;;;;;;;100.87;44.67;;;13.40;99.90;;;;;;5045977;28;20332;-52
2022/10/08 11:23:22;;;;;;;107.70;45.40;;;13.30;99.90;;;;;;5046559;28;20248;-48
2022/10/08 11:25:58;;;;;;;92.83;39.60;;;13.40;99.90;;;;;;5046588;28;20304;-52
2022/10/08 11:28:54;;;;;;;195.43;107.37;;;13.50;99.90;;;;;;5045386;28;20222;-51
2022/10/08 11:31:33;;;;;;;213.30;105.47;;;13.60;99.90;;;;;;5039659;28;20920;-52
2022/10/08 11:34:03;;;;;;;172.13;87.70;;;13.80;99.90;;;;;;5046031;28;20320;-52
2022/10/08 11:36:39;;;;;;;385.77;177.70;;;13.90;99.90;;;;;;5048167;28;20245;-51
2022/10/08 11:39:15;;;;;;;258.77;125.40;;;14.00;99.90;;;;;;5048562;28;20296;-52
2022/10/08 11:41:52;;;;;;;389.77;185.43;;;14.00;99.90;;;;;;5043115;28;20209;-52
2022/10/08 11:44:21;;;;;;;1035.93;394.97;;;14.30;99.90;;;;;;5048231;28;20229;-52
2022/10/08 11:46:50;;;;;;;460.43;233.47;;;14.70;99.90;;;;;;5048734;28;20328;-52
2022/10/08 11:49:44;;;;;;;435.13;234.13;;;14.70;99.90;;;;;;5048164;28;20230;-52
2022/10/08 11:52:15;;;;;;;622.63;335.63;;;15.00;99.90;;;;;;5040184;28;20885;-51
2022/10/08 11:54:48;;;;;;;376.20;217.40;;;15.20;99.90;;;;;;5046692;28;20248;-53
2022/10/08 11:57:32;;;;;;;669.07;325.43;;;15.40;99.90;;;;;;5048469;28;20205;-52
2022/10/08 12:00:38;;;;;;;391.30;227.20;;;15.70;99.90;;;;;;5046339;28;20210;-50
2022/10/08 12:03:19;;;;;;;346.00;173.25;;;15.70;99.90;;;;;;5045447;28;20316;-52
2022/10/08 12:05:52;;;;;;;412.13;225.18;;;15.70;99.90;;;;;;5047550;28;20206;-52
2022/10/08 12:08:52;;;;;;;453.80;302.70;;;15.60;99.90;;;;;;5047608;28;20316;-52
2022/10/08 12:11:51;;;;;;;562.45;363.38;;;15.40;99.90;;;;;;5042227;28;20241;-52
2022/10/08 12:14:48;;;;;;;347.43;206.23;;;15.30;99.90;;;;;;5045970;28;20230;-52
2022/10/08 12:17:16;;;;;;;432.13;246.53;;;15.10;99.90;;;;;;5044755;28;20308;-52
2022/10/08 12:20:19;;;;;;;496.00;271.90;;;14.80;99.90;;;;;;5044469;28;20586;-52
2022/10/08 12:23:10;;;;;;;265.07;153.00;;;14.50;99.90;;;;;;5044335;28;20211;-52
2022/10/08 12:25:43;;;;;;;293.27;184.47;;;14.30;99.90;;;;;;5041663;28;20284;-52
2022/10/08 12:28:49;;;;;;;310.43;193.63;;;14.20;99.90;;;;;;5045887;28;20225;-52
2022/10/08 12:31:28;;;;;;;223.17;136.53;;;14.00;99.90;;;;;;5044454;28;20296;-53
2022/10/08 12:34:03;;;;;;;174.23;108.63;;;14.10;99.90;;;;;;5046457;28;20315;-52
2022/10/08 12:36:45;;;;;;;287.23;125.17;;;14.20;99.90;;;;;;5047109;28;20648;-52
2022/10/08 12:39:21;;;;;;;326.20;175.03;;;14.40;99.90;;;;;;5046854;28;20288;-52
2022/10/08 12:41:58;;;;;;;229.07;132.77;;;14.50;99.90;;;;;;5046246;28;20906;-52
2022/10/08 12:44:39;;;;;;;631.33;291.07;;;14.70;99.90;;;;;;5046719;28;20231;-52
2022/10/08 12:47:26;;;;;;;382.93;223.07;;;14.60;99.90;;;;;;5046730;28;20213;-52
2022/10/08 12:50:00;;;;;;;202.23;110.57;;;14.50;99.90;;;;;;5044343;28;20304;-52
2022/10/08 12:52:33;;;;;;;371.73;206.20;;;14.50;99.90;;;;;;5047143;28;20853;-52
2022/10/08 12:55:03;;;;;;;754.40;383.70;;;14.50;99.90;;;;;;5047065;28;20289;-52
2022/10/08 12:57:34;;;;;;;255.57;112.80;;;14.60;99.90;;;;;;5045952;28;20256;-51
2022/10/08 13:00:08;;;;;;;430.93;237.07;;;14.60;99.90;;;;;;5046519;28;20208;-52
2022/10/08 13:02:39;;;;;;;405.20;216.03;;;14.70;99.90;;;;;;5047065;28;20302;-51
2022/10/08 13:05:24;;;;;;;309.83;165.23;;;14.90;99.90;;;;;;5045841;28;20233;-51
2022/10/08 13:07:52;;;;;;;299.33;144.73;;;15.10;99.90;;;;;;5046904;28;20216;-52